createdAt,value
2019-03-01T00:01:07.304Z,25.37
2019-03-01T00:03:37.441Z,25.07
2019-03-01T00:06:17.754Z,23.60
2019-03-01T00:09:07.770Z,24.23
2019-03-01T00:12:00.336Z,26.10
2019-03-01T00:14:57.681Z,25.00
2019-03-01T00:17:35.244Z,26.27
2019-03-01T00:20:24.938Z,25.33
2019-03-01T00:23:14.390Z,24.07
2019-03-01T00:26:06.602Z,26.10
2019-03-01T00:28:46.889Z,24.07
2019-03-01T00:31:36.382Z,24.53
2019-03-01T00:34:25.989Z,24.53
2019-03-01T00:37:05.767Z,24.67
2019-03-01T00:39:52.494Z,25.33
2019-03-01T00:42:46.471Z,25.37
2019-03-01T00:45:14.960Z,25.37
2019-03-01T00:47:43.436Z,24.93
2019-03-01T00:50:12.102Z,25.40
2019-03-01T00:52:40.572Z,25.50
2019-03-01T00:55:09.906Z,25.83
2019-03-01T00:57:38.359Z,25.47
2019-03-01T01:00:21.990Z,24.90
2019-03-01T01:02:50.455Z,24.07
2019-03-01T01:05:18.959Z,22.93
2019-03-01T01:07:47.604Z,24.77
2019-03-01T01:10:16.090Z,25.13
2019-03-01T01:12:44.566Z,26.13
2019-03-01T01:15:13.058Z,23.87
2019-03-01T01:17:41.528Z,22.90
2019-03-01T01:20:10.593Z,24.30
2019-03-01T01:22:39.057Z,23.80
2019-03-01T01:25:07.713Z,23.17
2019-03-01T01:27:36.179Z,24.10
2019-03-01T01:30:07.660Z,24.03
2019-03-01T01:32:36.145Z,23.60
2019-03-01T01:35:05.384Z,24.47
2019-03-01T01:37:33.868Z,23.47
2019-03-01T01:40:02.365Z,23.87
2019-03-01T01:42:30.819Z,22.87
2019-03-01T01:44:59.316Z,24.13
2019-03-01T01:47:27.805Z,22.77
2019-03-01T01:49:56.320Z,23.80
2019-03-01T01:52:24.782Z,23.57
2019-03-01T01:54:53.300Z,24.97
2019-03-01T01:57:21.779Z,25.23
2019-03-01T01:59:50.275Z,24.90
2019-03-01T02:02:18.745Z,24.23
2019-03-01T02:04:47.240Z,22.53
2019-03-01T02:07:15.707Z,24.80
2019-03-01T02:09:44.192Z,25.77
2019-03-01T02:12:12.691Z,25.40
2019-03-01T02:14:41.158Z,25.30
2019-03-01T02:17:09.671Z,25.20
2019-03-01T02:19:38.132Z,25.27
2019-03-01T02:22:06.631Z,24.07
2019-03-01T02:24:35.114Z,23.50
2019-03-01T02:27:24.721Z,24.70
2019-03-01T02:29:53.531Z,25.63
2019-03-01T02:32:34.168Z,24.17
2019-03-01T02:35:02.632Z,24.73
2019-03-01T02:37:31.170Z,24.80
2019-03-01T02:40:01.336Z,24.10
2019-03-01T02:42:29.814Z,24.60
2019-03-01T02:44:58.323Z,24.03
2019-03-01T02:47:26.780Z,24.07
2019-03-01T02:49:55.292Z,22.80
2019-03-01T02:52:23.770Z,22.57
2019-03-01T02:54:52.272Z,23.63
2019-03-01T02:57:20.740Z,22.87
2019-03-01T02:59:49.255Z,23.77
2019-03-01T03:02:17.736Z,23.40
2019-03-01T03:04:46.234Z,23.80
2019-03-01T03:07:16.369Z,24.73
2019-03-01T03:09:44.832Z,22.97
2019-03-01T03:12:13.502Z,24.17
2019-03-01T03:14:41.978Z,22.80
2019-03-01T03:17:10.475Z,22.67
2019-03-01T03:19:38.945Z,22.20
2019-03-01T03:22:07.467Z,23.23
2019-03-01T03:24:35.966Z,23.57
2019-03-01T03:27:04.461Z,22.63
2019-03-01T03:29:32.937Z,24.43
2019-03-01T03:32:01.469Z,22.97
2019-03-01T03:34:29.985Z,24.23
2019-03-01T03:36:58.493Z,24.57
2019-03-01T03:39:26.984Z,22.83
2019-03-01T03:41:55.456Z,23.50
2019-03-01T03:44:24.010Z,23.73
2019-03-01T03:46:52.502Z,24.50
2019-03-01T03:49:20.994Z,25.03
2019-03-01T03:51:49.458Z,24.67
2019-03-01T03:54:18.217Z,25.50
2019-03-01T03:56:46.977Z,24.43
2019-03-01T03:59:15.636Z,24.63
2019-03-01T04:01:44.102Z,25.60
2019-03-01T04:04:12.602Z,23.60
2019-03-01T04:06:41.242Z,25.87
2019-03-01T04:09:09.820Z,24.70
2019-03-01T04:11:38.310Z,24.73
2019-03-01T04:14:06.816Z,24.47
2019-03-01T04:16:35.297Z,25.30
2019-03-01T04:19:03.819Z,24.00
2019-03-01T04:21:32.283Z,23.93
2019-03-01T04:24:00.781Z,24.20
2019-03-01T04:26:29.253Z,25.20
2019-03-01T04:28:57.741Z,25.73
2019-03-01T04:31:26.218Z,26.17
2019-03-01T04:33:54.716Z,25.67
2019-03-01T04:36:23.181Z,24.70
2019-03-01T04:38:51.690Z,26.10
2019-03-01T04:41:20.174Z,25.80
2019-03-01T04:43:48.669Z,26.10
2019-03-01T04:46:17.139Z,26.27
2019-03-01T04:48:45.632Z,25.97
2019-03-01T04:51:14.098Z,27.17
2019-03-01T04:53:42.594Z,25.10
2019-03-01T04:56:11.067Z,25.10
2019-03-01T04:58:39.554Z,25.43
2019-03-01T05:01:08.031Z,26.00
2019-03-01T05:03:36.524Z,26.57
2019-03-01T05:06:05.060Z,27.97
2019-03-01T05:08:33.546Z,25.37
2019-03-01T05:11:02.021Z,26.50
2019-03-01T05:13:30.504Z,28.03
2019-03-01T05:15:58.985Z,28.53
2019-03-01T05:18:27.490Z,27.90
2019-03-01T05:20:55.970Z,30.97
2019-03-01T05:23:24.451Z,31.87
2019-03-01T05:25:52.936Z,32.33
2019-03-01T05:28:21.396Z,31.70
2019-03-01T05:30:49.921Z,36.53
2019-03-01T05:33:18.397Z,36.60
2019-03-01T05:35:46.877Z,34.93
2019-03-01T05:38:21.738Z,37.07
2019-03-01T05:40:45.566Z,36.77
2019-03-01T05:43:14.030Z,38.00
2019-03-01T05:45:42.555Z,36.73
2019-03-01T05:48:11.027Z,37.03
2019-03-01T05:50:39.523Z,37.13
2019-03-01T05:53:07.986Z,36.27
2019-03-01T05:55:36.494Z,36.00
2019-03-01T05:58:31.913Z,38.87
2019-03-01T06:01:15.224Z,37.07
2019-03-01T06:04:05.299Z,35.73
2019-03-01T06:06:42.320Z,35.57
2019-03-01T06:09:13.841Z,36.60
2019-03-01T06:11:47.967Z,36.87
2019-03-01T06:14:36.094Z,36.27
2019-03-01T06:17:13.522Z,36.87
2019-03-01T06:19:53.712Z,37.23
2019-03-01T06:22:40.074Z,37.07
2019-03-01T06:25:14.222Z,37.60
2019-03-01T06:27:54.222Z,37.57
2019-03-01T06:30:52.067Z,36.83
2019-03-01T06:33:40.561Z,37.53
2019-03-01T06:36:20.786Z,37.37
2019-03-01T06:38:56.754Z,36.80
2019-03-01T06:42:01.792Z,37.60
2019-03-01T06:45:06.736Z,36.53
2019-03-01T06:47:48.382Z,37.87
2019-03-01T06:50:18.231Z,38.97
2019-03-01T06:52:46.703Z,37.63
2019-03-01T06:55:30.317Z,39.70
2019-03-01T06:57:58.791Z,38.63
2019-03-01T07:00:28.273Z,40.83
2019-03-01T07:02:58.690Z,38.80
2019-03-01T07:05:27.236Z,40.17
2019-03-01T07:07:55.729Z,42.93
2019-03-01T07:10:24.216Z,45.27
2019-03-01T07:12:52.761Z,41.83
2019-03-01T07:15:21.306Z,44.43
2019-03-01T07:17:49.781Z,44.40
2019-03-01T07:20:18.248Z,45.63
2019-03-01T07:22:46.752Z,42.90
2019-03-01T07:25:15.230Z,44.47
2019-03-01T07:27:43.717Z,41.57
2019-03-01T07:30:12.469Z,45.47
2019-03-01T07:32:40.953Z,45.90
2019-03-01T07:35:10.265Z,44.00
2019-03-01T07:37:38.766Z,46.97
2019-03-01T07:40:09.776Z,45.67
2019-03-01T07:42:38.273Z,46.90
2019-03-01T07:45:12.482Z,47.00
2019-03-01T07:47:40.969Z,45.33
2019-03-01T07:50:12.149Z,47.23
2019-03-01T07:52:40.706Z,46.73
2019-03-01T07:55:11.684Z,46.00
2019-03-01T07:57:40.196Z,46.93
2019-03-01T08:00:17.910Z,47.67
2019-03-01T08:02:46.405Z,48.93
2019-03-01T08:05:16.313Z,47.23
2019-03-01T08:07:55.305Z,48.33
2019-03-01T08:10:20.693Z,47.33
2019-03-01T08:12:47.536Z,47.00
2019-03-01T08:15:17.332Z,46.80
2019-03-01T08:17:45.827Z,46.60
2019-03-01T08:20:16.412Z,47.00
2019-03-01T08:22:49.097Z,46.00
2019-03-01T08:25:22.834Z,44.73
2019-03-01T08:27:46.449Z,48.00
2019-03-01T08:30:17.002Z,47.23
2019-03-01T08:32:45.675Z,45.27
2019-03-01T08:35:18.712Z,47.17
2019-03-01T08:37:49.834Z,45.17
2019-03-01T08:40:18.220Z,44.27
2019-03-01T08:42:46.777Z,44.67
2019-03-01T08:45:20.268Z,45.90
2019-03-01T08:47:49.157Z,46.17
2019-03-01T08:50:18.290Z,46.10
2019-03-01T08:52:47.054Z,44.73
2019-03-01T08:55:18.233Z,46.27
2019-03-01T08:57:46.726Z,46.03
2019-03-01T09:00:18.171Z,44.53
2019-03-01T09:02:46.637Z,45.43
2019-03-01T09:05:15.116Z,45.03
2019-03-01T09:07:43.642Z,45.43
2019-03-01T09:10:14.741Z,47.67
2019-03-01T09:12:43.227Z,46.57
2019-03-01T09:15:13.938Z,47.50
2019-03-01T09:17:42.441Z,44.87
2019-03-01T09:20:15.918Z,46.27
2019-03-01T09:22:44.805Z,45.50
2019-03-01T09:25:15.489Z,45.10
2019-03-01T09:27:43.980Z,44.07
2019-03-01T09:30:21.548Z,46.40
2019-03-01T09:32:50.045Z,47.57
2019-03-01T09:35:39.605Z,48.23
2019-03-01T09:38:08.698Z,48.43
2019-03-01T09:40:37.157Z,47.80
2019-03-01T09:43:05.789Z,46.97
2019-03-01T09:45:36.434Z,47.20
2019-03-01T09:48:05.201Z,50.23
2019-03-01T09:50:34.585Z,47.97
2019-03-01T09:53:04.158Z,48.57
2019-03-01T09:55:34.856Z,48.90
2019-03-01T09:58:03.034Z,47.13
2019-03-01T10:00:37.496Z,48.43
2019-03-01T10:03:06.007Z,49.43
2019-03-01T10:05:34.496Z,49.20
2019-03-01T10:08:03.002Z,48.97
2019-03-01T10:10:35.309Z,47.10
2019-03-01T10:13:04.099Z,50.63
2019-03-01T10:15:32.651Z,48.40
2019-03-01T10:18:01.169Z,49.37
2019-03-01T10:20:29.647Z,50.27
2019-03-01T10:22:58.156Z,49.83
2019-03-01T10:25:26.704Z,48.63
2019-03-01T10:27:55.193Z,47.97
2019-03-01T10:30:24.998Z,48.43
2019-03-01T10:32:53.484Z,46.47
2019-03-01T10:35:22.031Z,46.23
2019-03-01T10:37:50.556Z,42.13
2019-03-01T10:40:23.620Z,39.93
2019-03-01T10:42:52.129Z,34.70
2019-03-01T10:45:25.926Z,35.20
2019-03-01T10:47:54.409Z,35.47
2019-03-01T10:50:22.897Z,35.53
2019-03-01T10:52:51.483Z,36.00
2019-03-01T10:55:20.705Z,37.13
2019-03-01T10:57:49.939Z,39.63
2019-03-01T11:00:28.591Z,39.23
2019-03-01T11:02:58.052Z,37.27
2019-03-01T11:05:27.475Z,37.27
2019-03-01T11:07:56.908Z,37.40
2019-03-01T11:10:39.408Z,35.97
2019-03-01T11:13:13.420Z,36.47
2019-03-01T11:15:41.908Z,38.33
2019-03-01T11:18:10.485Z,37.20
2019-03-01T11:20:38.978Z,37.30
2019-03-01T11:23:07.460Z,37.90
2019-03-01T11:25:35.937Z,36.63
2019-03-01T11:28:04.635Z,35.37
2019-03-01T11:30:34.264Z,37.90
2019-03-01T11:33:02.758Z,37.80
2019-03-01T11:35:31.227Z,37.27
2019-03-01T11:37:59.712Z,39.77
2019-03-01T11:40:31.226Z,35.13
2019-03-01T11:43:00.154Z,37.07
2019-03-01T11:45:28.702Z,36.77
2019-03-01T11:47:57.267Z,36.43
2019-03-01T11:50:25.850Z,36.80
2019-03-01T11:52:54.391Z,34.30
2019-03-01T11:55:22.947Z,34.47
2019-03-01T11:57:51.691Z,37.67
2019-03-01T12:00:27.956Z,37.50
2019-03-01T12:02:56.472Z,37.10
2019-03-01T12:05:24.966Z,37.13
2019-03-01T12:07:53.738Z,37.53
2019-03-01T12:10:28.508Z,38.33
2019-03-01T12:12:56.993Z,35.97
2019-03-01T12:15:25.472Z,34.33
2019-03-01T12:17:53.954Z,33.83
2019-03-01T12:20:30.493Z,36.53
2019-03-01T12:22:58.969Z,36.30
2019-03-01T12:25:27.543Z,37.37
2019-03-01T12:27:56.026Z,35.77
2019-03-01T12:30:25.753Z,36.37
2019-03-01T12:32:54.226Z,37.10
2019-03-01T12:35:22.706Z,34.27
2019-03-01T12:37:51.189Z,34.13
2019-03-01T12:40:25.032Z,35.63
2019-03-01T12:42:53.500Z,34.00
2019-03-01T12:45:21.999Z,32.47
2019-03-01T12:47:50.542Z,31.53
2019-03-01T12:50:19.202Z,30.57
2019-03-01T12:52:49.460Z,33.37
2019-03-01T12:55:22.806Z,31.60
2019-03-01T12:57:51.289Z,31.77
2019-03-01T13:00:22.770Z,32.07
2019-03-01T13:02:51.236Z,28.57
2019-03-01T13:05:19.807Z,27.37
2019-03-01T13:07:48.302Z,28.60
2019-03-01T13:10:19.636Z,25.77
2019-03-01T13:12:48.115Z,25.33
2019-03-01T13:15:16.640Z,25.23
2019-03-01T13:17:45.110Z,26.40
2019-03-01T13:20:16.757Z,23.63
2019-03-01T13:22:45.232Z,24.10
2019-03-01T13:25:15.605Z,24.53
2019-03-01T13:27:44.376Z,24.97
2019-03-01T13:30:21.190Z,23.67
2019-03-01T13:32:49.667Z,22.90
2019-03-01T13:35:22.378Z,18.33
2019-03-01T13:37:52.039Z,17.70
2019-03-01T13:40:24.431Z,15.93
2019-03-01T13:42:53.822Z,16.10
2019-03-01T13:45:26.350Z,16.90
2019-03-01T13:47:54.829Z,15.20
2019-03-01T13:50:23.567Z,14.83
2019-03-01T13:52:52.050Z,14.73
2019-03-01T13:55:22.066Z,13.70
2019-03-01T13:57:51.359Z,13.20
2019-03-01T14:00:21.555Z,13.23
2019-03-01T14:02:50.162Z,13.57
2019-03-01T14:05:19.215Z,13.20
2019-03-01T14:07:48.755Z,13.30
2019-03-01T14:10:22.916Z,12.50
2019-03-01T14:12:51.549Z,12.03
2019-03-01T14:15:20.043Z,12.33
2019-03-01T14:17:48.524Z,12.13
2019-03-01T14:20:21.139Z,11.57
2019-03-01T14:22:49.821Z,11.67
2019-03-01T14:25:18.572Z,11.17
2019-03-01T14:27:47.204Z,10.13
2019-03-01T14:30:20.489Z,10.10
2019-03-01T14:32:49.021Z,10.47
2019-03-01T14:35:20.121Z,9.50
2019-03-01T14:37:47.779Z,10.47
2019-03-01T14:40:22.584Z,9.87
2019-03-01T14:42:49.962Z,9.60
2019-03-01T14:45:29.533Z,9.43
2019-03-01T14:47:58.036Z,9.27
2019-03-01T14:50:30.131Z,10.13
2019-03-01T14:52:58.934Z,9.47
2019-03-01T14:55:46.088Z,8.90
2019-03-01T14:58:25.866Z,9.33
2019-03-01T15:01:00.534Z,8.63
2019-03-01T15:03:30.808Z,8.40
2019-03-01T15:05:59.315Z,7.70
2019-03-01T15:08:27.769Z,8.03
2019-03-01T15:10:57.198Z,8.33
2019-03-01T15:13:27.774Z,8.30
2019-03-01T15:15:56.151Z,8.00
2019-03-01T15:18:25.129Z,7.67
2019-03-01T15:20:56.333Z,7.23
2019-03-01T15:23:24.855Z,7.37
2019-03-01T15:25:53.492Z,7.37
2019-03-01T15:28:22.667Z,7.10
2019-03-01T15:30:51.137Z,6.60
2019-03-01T15:33:19.630Z,7.83
2019-03-01T15:35:48.104Z,7.63
2019-03-01T15:38:16.600Z,7.40
2019-03-01T15:40:45.071Z,7.70
2019-03-01T15:43:13.553Z,6.63
2019-03-01T15:45:42.010Z,7.27
2019-03-01T15:48:10.511Z,6.40
2019-03-01T15:50:39.051Z,6.77
2019-03-01T15:53:07.635Z,7.23
2019-03-01T15:55:36.103Z,7.33
2019-03-01T15:58:04.589Z,6.70
2019-03-01T16:00:33.070Z,6.80
2019-03-01T16:03:01.553Z,6.60
2019-03-01T16:05:30.012Z,6.53
2019-03-01T16:07:58.498Z,6.63
2019-03-01T16:10:26.963Z,5.83
2019-03-01T16:12:55.470Z,6.87
2019-03-01T16:15:23.944Z,7.03
2019-03-01T16:17:52.427Z,7.47
2019-03-01T16:20:25.135Z,6.87
2019-03-01T16:22:55.055Z,6.33
2019-03-01T16:25:23.650Z,7.53
2019-03-01T16:27:54.289Z,6.97
2019-03-01T16:30:22.328Z,6.70
2019-03-01T16:32:50.892Z,6.50
2019-03-01T16:35:20.595Z,6.83
2019-03-01T16:37:53.471Z,6.63
2019-03-01T16:40:21.979Z,6.63
2019-03-01T16:42:54.292Z,7.40
2019-03-01T16:45:21.870Z,7.83
2019-03-01T16:47:50.569Z,7.10
2019-03-01T16:50:20.758Z,7.33
2019-03-01T16:52:49.242Z,6.77
2019-03-01T16:55:24.446Z,7.23
2019-03-01T16:57:53.640Z,7.50
2019-03-01T17:00:23.963Z,10.97
2019-03-01T17:03:09.564Z,7.40
2019-03-01T17:05:38.786Z,6.90
2019-03-01T17:08:08.090Z,6.63
2019-03-01T17:10:36.565Z,7.70
2019-03-01T17:13:05.049Z,8.03
2019-03-01T17:15:33.507Z,7.77
2019-03-01T17:18:01.988Z,7.77
2019-03-01T17:20:30.453Z,7.33
2019-03-01T17:22:59.750Z,7.70
2019-03-01T17:25:29.126Z,7.43
2019-03-01T17:27:57.623Z,7.50
2019-03-01T17:30:26.827Z,8.63
2019-03-01T17:32:55.319Z,7.50
2019-03-01T17:35:23.808Z,8.33
2019-03-01T17:37:52.273Z,8.33
2019-03-01T17:40:21.319Z,7.83
2019-03-01T17:42:52.949Z,8.00
2019-03-01T17:45:24.432Z,7.97
2019-03-01T17:47:52.907Z,8.10
2019-03-01T17:50:21.390Z,7.77
2019-03-01T17:52:49.844Z,7.27
2019-03-01T17:55:19.781Z,7.47
2019-03-01T17:57:50.194Z,7.87
2019-03-01T18:00:25.429Z,7.60
2019-03-01T18:02:52.199Z,7.40
2019-03-01T18:05:21.821Z,7.90
2019-03-01T18:07:50.300Z,8.20
2019-03-01T18:10:18.795Z,7.43
2019-03-01T18:12:47.256Z,7.43
2019-03-01T18:15:16.779Z,8.37
2019-03-01T18:17:45.235Z,7.60
2019-03-01T18:20:14.562Z,8.10
2019-03-01T18:22:43.097Z,7.00
2019-03-01T18:25:13.237Z,6.60
2019-03-01T18:27:41.717Z,6.40
2019-03-01T18:30:21.896Z,6.20
2019-03-01T18:32:50.460Z,5.80
2019-03-01T18:35:19.118Z,5.90
2019-03-01T18:37:47.588Z,6.03
2019-03-01T18:40:16.786Z,5.83
2019-03-01T18:42:45.987Z,5.70
2019-03-01T18:45:19.007Z,4.60
2019-03-01T18:47:47.533Z,4.97
2019-03-01T18:50:22.171Z,5.80
2019-03-01T18:52:53.390Z,5.90
2019-03-01T18:55:20.850Z,5.73
2019-03-01T18:57:49.308Z,5.47
2019-03-01T19:00:32.462Z,5.40
2019-03-01T19:03:01.037Z,5.50
2019-03-01T19:05:31.837Z,5.20
2019-03-01T19:08:04.229Z,5.40
2019-03-01T19:10:30.933Z,5.20
2019-03-01T19:12:59.394Z,5.47
2019-03-01T19:15:28.027Z,4.53
2019-03-01T19:17:56.870Z,5.63
2019-03-01T19:20:30.929Z,5.50
2019-03-01T19:22:59.389Z,5.13
2019-03-01T19:25:27.874Z,4.60
2019-03-01T19:27:56.361Z,4.77
2019-03-01T19:30:25.915Z,5.33
2019-03-01T19:32:54.389Z,4.97
2019-03-01T19:35:28.496Z,4.90
2019-03-01T19:37:53.146Z,5.63
2019-03-01T19:40:22.913Z,5.30
2019-03-01T19:42:51.490Z,5.33
2019-03-01T19:45:20.514Z,5.20
2019-03-01T19:47:49.097Z,5.10
2019-03-01T19:50:26.001Z,6.00
2019-03-01T19:52:54.815Z,5.00
2019-03-01T19:55:24.851Z,5.80
2019-03-01T19:57:55.187Z,5.17
2019-03-01T20:00:28.474Z,5.60
2019-03-01T20:02:56.968Z,5.63
2019-03-01T20:05:33.317Z,5.90
2019-03-01T20:08:04.765Z,5.70
2019-03-01T20:10:33.266Z,5.43
2019-03-01T20:13:01.939Z,5.00
2019-03-01T20:15:31.371Z,5.47
2019-03-01T20:17:59.854Z,4.43
2019-03-01T20:20:29.843Z,5.17
2019-03-01T20:22:59.585Z,5.43
2019-03-01T20:25:28.061Z,5.40
2019-03-01T20:27:56.565Z,5.27
2019-03-01T20:30:30.637Z,4.80
2019-03-01T20:33:00.215Z,5.60
2019-03-01T20:35:28.734Z,5.20
2019-03-01T20:38:00.334Z,5.10
2019-03-01T20:40:28.318Z,5.60
2019-03-01T20:42:59.912Z,5.17
2019-03-01T20:45:31.672Z,5.07
2019-03-01T20:48:00.151Z,5.53
2019-03-01T20:50:30.126Z,5.13
2019-03-01T20:52:58.614Z,5.13
2019-03-01T20:55:27.104Z,6.00
2019-03-01T20:57:55.606Z,5.40
2019-03-01T21:00:29.846Z,5.20
2019-03-01T21:02:58.194Z,5.67
2019-03-01T21:05:28.860Z,6.10
2019-03-01T21:07:56.880Z,6.27
2019-03-01T21:10:32.931Z,6.60
2019-03-01T21:13:01.416Z,5.70
2019-03-01T21:15:29.897Z,5.73
2019-03-01T21:17:58.689Z,6.33
2019-03-01T21:20:27.350Z,5.60
2019-03-01T21:22:55.854Z,6.20
2019-03-01T21:25:25.308Z,5.53
2019-03-01T21:27:53.886Z,6.33
2019-03-01T21:30:24.963Z,5.67
2019-03-01T21:32:53.501Z,6.03
2019-03-01T21:35:22.948Z,6.03
2019-03-01T21:37:52.208Z,5.73
2019-03-01T21:40:20.846Z,6.53
2019-03-01T21:42:52.751Z,5.73
2019-03-01T21:45:24.616Z,5.83
2019-03-01T21:47:53.249Z,6.27
2019-03-01T21:50:26.805Z,5.80
2019-03-01T21:52:55.331Z,5.90
2019-03-01T21:55:28.617Z,6.00
2019-03-01T21:57:55.930Z,5.67
2019-03-01T22:00:31.479Z,6.07
2019-03-01T22:03:00.163Z,6.30
2019-03-01T22:05:28.695Z,5.60
2019-03-01T22:07:57.166Z,6.10
2019-03-01T22:10:25.647Z,5.37
2019-03-01T22:12:56.782Z,5.57
2019-03-01T22:15:28.563Z,5.70
2019-03-01T22:17:57.101Z,6.93
2019-03-01T22:20:26.342Z,5.87
2019-03-01T22:22:54.797Z,5.93
2019-03-01T22:25:23.475Z,6.27
2019-03-01T22:27:51.931Z,6.30
2019-03-01T22:30:23.868Z,6.20
2019-03-01T22:32:52.286Z,5.50
2019-03-01T22:35:20.817Z,5.70
2019-03-01T22:37:49.298Z,5.87
2019-03-01T22:40:17.834Z,6.23
2019-03-01T22:42:49.754Z,6.00
2019-03-01T22:45:17.528Z,5.77
2019-03-01T22:47:46.193Z,6.13
2019-03-01T22:50:16.437Z,5.77
2019-03-01T22:52:45.235Z,6.80
2019-03-01T22:55:18.120Z,5.43
2019-03-01T22:57:46.595Z,5.90
2019-03-01T23:00:48.032Z,5.60
2019-03-01T23:03:18.938Z,5.63
2019-03-01T23:05:47.712Z,5.23
2019-03-01T23:08:16.340Z,5.33
2019-03-01T23:10:44.987Z,5.70
2019-03-01T23:13:17.088Z,5.50
2019-03-01T23:15:44.577Z,5.30
2019-03-01T23:18:13.260Z,4.90
2019-03-01T23:20:42.427Z,5.00
2019-03-01T23:23:10.898Z,5.23
2019-03-01T23:25:39.380Z,5.43
2019-03-01T23:28:09.186Z,5.20
2019-03-01T23:30:37.880Z,6.73
2019-03-01T23:33:06.562Z,5.37
2019-03-01T23:35:35.063Z,5.07
2019-03-01T23:38:03.516Z,5.40
2019-03-01T23:40:32.705Z,5.17
2019-03-01T23:43:02.201Z,5.07
2019-03-01T23:45:30.691Z,5.43
2019-03-01T23:47:59.166Z,5.00
2019-03-01T23:50:27.666Z,5.90
2019-03-01T23:52:58.896Z,6.00
2019-03-01T23:55:27.216Z,5.80
2019-03-01T23:57:56.718Z,6.03
